createdAt,value
2024-03-01T00:02:26.619Z,62.35
2024-03-01T00:04:56.460Z,63.10
2024-03-01T00:07:25.967Z,72.43
2024-03-01T00:09:54.214Z,67.65
2024-03-01T00:12:22.570Z,67.20
2024-03-01T00:14:50.736Z,72.72
2024-03-01T00:17:18.804Z,73.93
2024-03-01T00:19:50.171Z,67.88
2024-03-01T00:22:20.652Z,84.68
2024-03-01T00:24:49.102Z,73.63
2024-03-01T00:27:17.580Z,77.18
2024-03-01T00:29:45.930Z,75.78
2024-03-01T00:32:14.505Z,74.63
2024-03-01T00:34:42.643Z,76.65
2024-03-01T00:37:10.826Z,76.18
2024-03-01T00:39:40.640Z,85.60
2024-03-01T00:42:09.661Z,71.45
2024-03-01T00:44:37.670Z,79.78
2024-03-01T00:47:05.898Z,85.15
2024-03-01T00:49:35.044Z,78.40
2024-03-01T00:52:03.272Z,86.70
2024-03-01T00:54:31.375Z,79.88
2024-03-01T00:57:00.866Z,87.55
2024-03-01T00:59:28.912Z,84.22
2024-03-01T01:06:13.672Z,85.50
2024-03-01T01:08:42.103Z,92.25
2024-03-01T01:11:10.174Z,92.97
2024-03-01T01:13:39.788Z,100.53
2024-03-01T01:16:08.317Z,109.10
2024-03-01T01:18:39.133Z,113.38
2024-03-01T01:21:07.750Z,105.85
2024-03-01T01:23:36.290Z,110.07
2024-03-01T01:26:06.116Z,118.45
2024-03-01T01:28:35.309Z,103.93
2024-03-01T01:31:09.680Z,109.63
2024-03-01T01:33:38.830Z,128.52
2024-03-01T01:36:08.909Z,132.68
2024-03-01T01:38:38.642Z,113.13
2024-03-01T01:41:07.304Z,126.93
2024-03-01T01:43:37.633Z,108.13
2024-03-01T01:46:07.983Z,129.63
2024-03-01T01:48:40.037Z,125.25
2024-03-01T01:51:09.937Z,123.80
2024-03-01T01:53:40.036Z,131.73
2024-03-01T01:56:09.635Z,128.10
2024-03-01T01:58:38.252Z,123.45
2024-03-01T02:01:09.227Z,122.53
2024-03-01T02:03:38.553Z,135.85
2024-03-01T02:06:07.536Z,116.38
2024-03-01T02:08:36.726Z,133.32
2024-03-01T02:11:06.561Z,133.65
2024-03-01T02:13:34.803Z,155.30
2024-03-01T02:16:02.936Z,152.02
2024-03-01T02:18:34.364Z,145.88
2024-03-01T02:21:08.277Z,147.73
2024-03-01T02:23:39.641Z,150.27
2024-03-01T02:26:09.310Z,159.60
2024-03-01T02:28:44.525Z,163.57
2024-03-01T02:31:12.953Z,164.07
2024-03-01T02:33:41.140Z,174.75
2024-03-01T02:36:10.307Z,178.32
2024-03-01T02:38:39.739Z,166.65
2024-03-01T02:41:07.788Z,166.95
2024-03-01T02:43:35.860Z,186.20
2024-03-01T02:46:04.037Z,186.07
2024-03-01T02:48:33.338Z,176.45
2024-03-01T02:51:01.872Z,175.02
2024-03-01T02:53:29.971Z,172.57
2024-03-01T02:55:59.754Z,178.35
2024-03-01T02:58:27.975Z,197.82
2024-03-01T03:00:57.317Z,187.32
2024-03-01T03:03:25.597Z,163.07
2024-03-01T03:05:54.067Z,199.82
2024-03-01T03:08:23.569Z,189.68
2024-03-01T03:10:52.043Z,193.40
2024-03-01T03:13:21.709Z,177.52
2024-03-01T03:15:50.247Z,187.05
2024-03-01T03:18:18.664Z,198.55
2024-03-01T03:20:46.913Z,194.80
2024-03-01T03:23:15.001Z,192.27
2024-03-01T03:25:43.425Z,193.50
2024-03-01T03:28:12.076Z,189.13
2024-03-01T03:30:41.629Z,190.80
2024-03-01T03:33:10.126Z,209.30
2024-03-01T03:35:38.168Z,195.27
2024-03-01T03:38:06.224Z,216.00
2024-03-01T03:40:34.598Z,205.52
2024-03-01T03:43:03.132Z,190.00
2024-03-01T03:45:31.286Z,194.63
2024-03-01T03:48:00.965Z,206.45
2024-03-01T03:50:30.657Z,194.80
2024-03-01T03:52:59.121Z,191.88
2024-03-01T03:55:28.011Z,221.57
2024-03-01T03:57:56.380Z,211.52
2024-03-01T04:00:24.883Z,222.27
2024-03-01T04:02:53.135Z,216.90
2024-03-01T04:05:22.744Z,210.45
2024-03-01T04:07:50.800Z,221.88
2024-03-01T04:10:19.236Z,207.48
2024-03-01T04:12:48.397Z,221.82
2024-03-01T04:15:19.201Z,210.45
2024-03-01T04:17:47.404Z,208.68
2024-03-01T04:20:17.665Z,222.57
2024-03-01T04:22:47.056Z,227.15
2024-03-01T04:25:15.147Z,242.48
2024-03-01T04:27:44.031Z,217.52
2024-03-01T04:30:13.061Z,229.43
2024-03-01T04:32:41.302Z,226.02
2024-03-01T04:35:09.586Z,279.40
2024-03-01T04:37:37.756Z,247.02
2024-03-01T04:40:08.066Z,252.07
2024-03-01T04:42:38.882Z,266.85
2024-03-01T04:45:08.516Z,259.10
2024-03-01T04:47:36.712Z,257.00
2024-03-01T04:50:07.723Z,244.57
2024-03-01T04:52:37.261Z,256.73
2024-03-01T04:55:10.766Z,256.65
2024-03-01T04:57:39.418Z,250.90
2024-03-01T05:00:13.674Z,268.85
2024-03-01T05:02:42.653Z,249.18
2024-03-01T05:05:11.482Z,253.38
2024-03-01T05:07:40.070Z,248.02
2024-03-01T05:10:11.652Z,235.15
2024-03-01T05:12:40.952Z,254.63
2024-03-01T05:15:13.800Z,261.08
2024-03-01T05:17:42.944Z,248.82
2024-03-01T05:20:12.870Z,268.90
2024-03-01T05:22:41.465Z,288.15
2024-03-01T05:25:18.801Z,277.25
2024-03-01T05:27:49.198Z,247.30
2024-03-01T05:30:31.594Z,258.58
2024-03-01T05:33:08.417Z,290.42
2024-03-01T05:35:38.202Z,289.20
2024-03-01T05:38:06.531Z,266.42
2024-03-01T05:40:46.654Z,294.55
2024-03-01T05:43:20.361Z,283.10
2024-03-01T05:45:48.818Z,273.42
2024-03-01T05:48:18.743Z,288.95
2024-03-01T05:50:47.726Z,284.55
2024-03-01T05:53:17.630Z,298.35
2024-03-01T05:55:48.334Z,293.10
2024-03-01T05:58:16.728Z,288.33
2024-03-01T06:00:47.017Z,277.05
2024-03-01T06:03:15.419Z,271.58
2024-03-01T06:05:44.539Z,284.35
2024-03-01T06:08:12.550Z,278.45
2024-03-01T06:10:40.944Z,277.80
2024-03-01T06:13:13.236Z,271.80
2024-03-01T06:18:09.211Z,266.85
2024-03-01T06:20:37.594Z,279.40
2024-03-01T06:23:07.002Z,289.70
2024-03-01T06:25:35.432Z,298.92
2024-03-01T06:28:05.570Z,293.88
2024-03-01T06:30:37.294Z,293.23
2024-03-01T06:33:10.266Z,262.10
2024-03-01T06:35:39.264Z,274.27
2024-03-01T06:38:07.766Z,246.27
2024-03-01T06:40:45.016Z,264.23
2024-03-01T06:43:18.818Z,259.88
2024-03-01T06:45:51.002Z,244.70
2024-03-01T06:48:27.498Z,247.48
2024-03-01T06:51:00.198Z,227.30
2024-03-01T06:53:31.260Z,260.90
2024-03-01T06:56:04.737Z,235.77
2024-03-01T06:58:36.303Z,243.15
2024-03-01T07:01:10.784Z,243.98
2024-03-01T07:03:39.948Z,220.88
2024-03-01T07:06:09.542Z,238.20
2024-03-01T07:08:39.447Z,238.45
2024-03-01T07:11:08.595Z,219.52
2024-03-01T07:13:43.191Z,244.52
2024-03-01T07:16:16.902Z,230.73
2024-03-01T07:18:48.744Z,221.20
2024-03-01T07:21:19.117Z,216.18
2024-03-01T07:23:48.156Z,217.25
2024-03-01T07:26:16.996Z,208.30
2024-03-01T07:28:57.144Z,231.27
2024-03-01T07:31:30.603Z,199.38
2024-03-01T07:34:04.823Z,214.38
2024-03-01T07:36:39.991Z,209.35
2024-03-01T07:39:14.638Z,205.63
2024-03-01T07:41:43.180Z,198.90
2024-03-01T07:44:13.728Z,207.93
2024-03-01T07:46:49.300Z,192.20
2024-03-01T07:49:19.006Z,205.57
2024-03-01T07:51:52.464Z,194.75
2024-03-01T07:54:26.426Z,190.02
2024-03-01T07:57:09.101Z,192.57
2024-03-01T07:59:52.431Z,194.20
2024-03-01T08:02:22.903Z,172.30
2024-03-01T08:04:54.342Z,183.07
2024-03-01T08:07:30.079Z,165.65
2024-03-01T08:10:01.005Z,164.07
2024-03-01T08:12:29.653Z,173.23
2024-03-01T08:15:00.803Z,156.65
2024-03-01T08:17:41.636Z,151.55
2024-03-01T08:20:29.993Z,147.02
2024-03-01T08:23:00.145Z,143.73
2024-03-01T08:25:36.528Z,125.03
2024-03-01T08:28:11.275Z,114.65
2024-03-01T08:31:20.602Z,120.32
2024-03-01T08:34:06.767Z,117.43
2024-03-01T08:36:37.200Z,102.45
2024-03-01T08:39:12.103Z,97.85
2024-03-01T08:41:43.275Z,98.20
2024-03-01T08:44:39.217Z,84.95
2024-03-01T08:47:08.876Z,72.18
2024-03-01T08:50:20.298Z,70.47
2024-03-01T08:53:00.043Z,72.40
2024-03-01T08:55:44.100Z,69.47
2024-03-01T08:58:22.396Z,70.13
2024-03-01T09:00:54.682Z,70.75
2024-03-01T09:03:30.940Z,70.97
2024-03-01T09:06:01.841Z,67.15
2024-03-01T09:08:45.181Z,60.28
2024-03-01T09:11:14.807Z,64.63
2024-03-01T09:13:45.998Z,66.60
2024-03-01T09:16:21.874Z,64.63
2024-03-01T09:18:53.642Z,60.25
2024-03-01T09:22:11.701Z,66.18
2024-03-01T09:24:44.435Z,56.60
2024-03-01T09:27:26.044Z,55.35
2024-03-01T09:30:09.214Z,54.42
2024-03-01T09:32:52.649Z,58.10
2024-03-01T09:35:26.404Z,52.42
2024-03-01T09:38:04.246Z,51.00
2024-03-01T09:41:29.502Z,53.08
2024-03-01T09:44:17.747Z,52.05
2024-03-01T09:47:05.909Z,49.58
2024-03-01T09:50:08.897Z,53.45
2024-03-01T09:52:46.372Z,48.33
2024-03-01T09:55:27.649Z,55.45
2024-03-01T09:58:06.182Z,53.70
2024-03-01T10:00:48.307Z,47.40
2024-03-01T10:03:40.697Z,48.53
2024-03-01T10:06:33.358Z,42.15
2024-03-01T10:11:58.588Z,40.55
2024-03-01T10:14:43.701Z,53.75
2024-03-01T10:17:21.747Z,46.08
2024-03-01T10:20:17.177Z,46.65
2024-03-01T10:22:58.560Z,49.35
2024-03-01T10:25:42.926Z,48.35
2024-03-01T10:28:26.282Z,39.95
2024-03-01T10:31:02.646Z,43.42
2024-03-01T10:33:48.569Z,46.97
2024-03-01T10:36:24.493Z,40.08
2024-03-01T10:39:28.696Z,46.78
2024-03-01T10:42:10.140Z,42.05
2024-03-01T10:44:48.548Z,45.85
2024-03-01T10:47:25.716Z,44.15
2024-03-01T10:50:18.523Z,42.85
2024-03-01T10:55:24.838Z,45.10
2024-03-01T10:57:59.530Z,48.95
2024-03-01T11:00:36.600Z,45.80
2024-03-01T11:03:21.628Z,37.70
2024-03-01T11:06:08.478Z,45.92
2024-03-01T11:08:48.105Z,48.30
2024-03-01T11:11:22.635Z,52.70
2024-03-01T11:13:57.350Z,49.00
2024-03-01T11:16:34.092Z,38.90
2024-03-01T11:19:15.038Z,43.08
2024-03-01T11:21:51.847Z,46.63
2024-03-01T11:24:29.492Z,49.17
2024-03-01T11:27:00.807Z,51.28
2024-03-01T11:29:46.782Z,50.53
2024-03-01T11:32:22.310Z,46.78
2024-03-01T11:35:02.757Z,46.45
2024-03-01T11:37:45.765Z,46.42
2024-03-01T11:40:26.544Z,41.00
2024-03-01T11:43:10.909Z,43.20
2024-03-01T11:46:18.798Z,46.85
2024-03-01T11:49:15.695Z,49.85
2024-03-01T11:52:06.009Z,42.60
2024-03-01T11:55:04.513Z,42.78
2024-03-01T11:57:46.455Z,45.13
2024-03-01T12:00:46.250Z,45.47
2024-03-01T12:03:46.036Z,39.83
2024-03-01T12:06:50.297Z,46.30
2024-03-01T12:09:28.119Z,46.10
2024-03-01T12:12:21.111Z,47.55
2024-03-01T12:15:02.723Z,44.53
2024-03-01T12:17:35.586Z,45.42
2024-03-01T12:20:12.541Z,44.45
2024-03-01T12:23:07.721Z,48.10
2024-03-01T12:25:45.902Z,39.15
2024-03-01T12:28:34.527Z,43.38
2024-03-01T12:31:10.073Z,47.22
2024-03-01T12:33:53.487Z,41.13
2024-03-01T12:36:44.025Z,44.92
2024-03-01T12:39:32.764Z,41.85
2024-03-01T12:42:08.279Z,44.13
2024-03-01T12:44:50.379Z,49.75
2024-03-01T12:47:45.277Z,41.10
2024-03-01T12:50:32.485Z,41.15
2024-03-01T12:53:16.153Z,39.17
2024-03-01T12:55:54.071Z,41.42
2024-03-01T12:58:33.631Z,48.42
2024-03-01T13:01:14.697Z,40.58
2024-03-01T13:03:55.706Z,42.08
2024-03-01T13:06:38.343Z,48.35
2024-03-01T13:12:08.222Z,48.38
2024-03-01T13:14:57.709Z,53.33
2024-03-01T13:17:38.009Z,52.05
2024-03-01T13:20:27.718Z,54.58
2024-03-01T13:23:10.129Z,52.13
2024-03-01T13:25:49.268Z,50.08
2024-03-01T13:28:19.604Z,48.25
2024-03-01T13:30:52.729Z,48.55
2024-03-01T13:33:32.489Z,47.25
2024-03-01T13:36:13.375Z,47.72
2024-03-01T13:39:14.594Z,49.10
2024-03-01T13:41:55.043Z,45.25
2024-03-01T13:44:36.504Z,48.08
2024-03-01T13:47:19.991Z,48.22
2024-03-01T13:49:58.043Z,44.45
2024-03-01T13:52:40.371Z,53.13
2024-03-01T13:55:26.507Z,44.30
2024-03-01T13:58:07.777Z,47.38
2024-03-01T14:00:54.746Z,42.40
2024-03-01T14:03:24.330Z,48.42
2024-03-01T14:05:57.444Z,52.78
2024-03-01T14:08:26.616Z,41.97
2024-03-01T14:10:56.761Z,44.80
2024-03-01T14:13:26.794Z,39.08
2024-03-01T14:16:04.225Z,49.33
2024-03-01T14:18:32.930Z,48.55
2024-03-01T14:21:18.460Z,47.55
2024-03-01T14:23:47.274Z,46.22
2024-03-01T14:26:15.683Z,43.42
2024-03-01T14:28:46.763Z,44.92
2024-03-01T14:31:15.228Z,44.20
2024-03-01T14:33:57.656Z,41.72
2024-03-01T14:36:27.605Z,50.95
2024-03-01T14:38:57.348Z,45.88
2024-03-01T14:41:39.641Z,46.67
2024-03-01T14:44:09.263Z,47.25
2024-03-01T14:46:39.883Z,50.00
2024-03-01T14:49:16.977Z,45.05
2024-03-01T14:51:49.276Z,46.95
2024-03-01T14:54:23.314Z,49.75
2024-03-01T14:56:52.052Z,53.80
2024-03-01T14:59:22.063Z,53.05
2024-03-01T15:01:52.778Z,53.38
2024-03-01T15:04:22.644Z,48.60
2024-03-01T15:06:54.085Z,43.67
2024-03-01T15:09:24.201Z,46.40
2024-03-01T15:11:54.995Z,44.85
2024-03-01T15:14:27.532Z,48.55
2024-03-01T15:17:10.419Z,54.97
2024-03-01T15:19:44.584Z,50.50
2024-03-01T15:22:15.687Z,54.75
2024-03-01T15:24:45.511Z,50.83
2024-03-01T15:27:26.155Z,60.63
2024-03-01T15:29:56.243Z,53.83
2024-03-01T15:32:28.041Z,58.35
2024-03-01T15:34:57.562Z,51.88
2024-03-01T15:37:28.702Z,45.63
2024-03-01T15:39:58.293Z,56.28
2024-03-01T15:42:29.872Z,54.40
2024-03-01T15:45:01.214Z,54.72
2024-03-01T15:47:31.538Z,53.20
2024-03-01T15:50:01.821Z,53.63
2024-03-01T15:52:35.924Z,55.67
2024-03-01T15:55:09.592Z,53.75
2024-03-01T15:57:40.194Z,57.08
2024-03-01T16:00:12.572Z,60.15
2024-03-01T16:05:14.388Z,55.42
2024-03-01T16:10:22.758Z,57.47
2024-03-01T16:12:55.650Z,60.58
2024-03-01T16:15:26.253Z,57.42
2024-03-01T16:17:57.557Z,58.22
2024-03-01T16:20:31.067Z,58.45
2024-03-01T16:23:06.350Z,64.13
2024-03-01T16:25:37.104Z,53.05
2024-03-01T16:28:19.628Z,65.00
2024-03-01T16:33:24.162Z,63.80
2024-03-01T16:36:19.832Z,54.25
2024-03-01T16:38:53.688Z,59.65
2024-03-01T16:41:41.125Z,57.10
2024-03-01T16:44:36.800Z,57.72
2024-03-01T16:47:06.262Z,61.78
2024-03-01T16:49:40.621Z,61.88
2024-03-01T16:52:12.155Z,63.45
2024-03-01T16:54:45.248Z,66.88
2024-03-01T16:57:26.410Z,59.15
2024-03-01T16:59:57.296Z,61.15
2024-03-01T17:02:30.825Z,57.28
2024-03-01T17:05:00.856Z,62.38
2024-03-01T17:07:46.363Z,59.33
2024-03-01T17:10:25.272Z,315.08
2024-03-01T17:13:00.067Z,77.55
2024-03-01T17:15:29.786Z,66.07
2024-03-01T17:17:59.138Z,64.63
2024-03-01T17:20:30.519Z,63.00
2024-03-01T17:22:59.925Z,68.60
2024-03-01T17:25:30.505Z,65.18
2024-03-01T17:27:59.845Z,63.83
2024-03-01T17:30:28.814Z,66.20
2024-03-01T17:32:57.943Z,62.85
2024-03-01T17:35:26.987Z,69.07
2024-03-01T17:37:56.030Z,66.63
2024-03-01T17:40:27.022Z,74.03
2024-03-01T17:42:57.526Z,74.43
2024-03-01T17:45:26.660Z,73.30
2024-03-01T17:47:55.749Z,77.80
2024-03-01T17:50:25.138Z,69.25
2024-03-01T17:52:55.673Z,72.68
2024-03-01T17:55:24.705Z,75.13
2024-03-01T17:57:53.771Z,78.30
2024-03-01T18:00:24.518Z,72.18
2024-03-01T18:02:53.330Z,75.22
2024-03-01T18:05:21.489Z,78.60
2024-03-01T18:07:49.648Z,70.80
2024-03-01T18:10:20.597Z,80.10
2024-03-01T18:12:50.098Z,82.95
2024-03-01T18:15:18.254Z,73.85
2024-03-01T18:17:48.068Z,82.32
2024-03-01T18:20:16.612Z,83.38
2024-03-01T18:22:44.802Z,81.75
2024-03-01T18:25:13.868Z,89.38
2024-03-01T18:27:42.236Z,81.22
2024-03-01T18:30:12.712Z,82.43
2024-03-01T18:32:41.020Z,91.88
2024-03-01T18:35:11.106Z,86.05
2024-03-01T18:37:39.449Z,83.55
2024-03-01T18:40:09.369Z,84.93
2024-03-01T18:42:37.817Z,78.47
2024-03-01T18:45:07.216Z,76.15
2024-03-01T18:47:35.481Z,83.55
2024-03-01T18:50:04.203Z,95.15
2024-03-01T18:52:34.879Z,83.47
2024-03-01T18:55:03.287Z,82.55
2024-03-01T18:57:32.596Z,87.47
2024-03-01T19:00:00.737Z,87.47
2024-03-01T19:02:29.501Z,92.70
2024-03-01T19:05:00.161Z,86.05
2024-03-01T19:07:28.950Z,89.30
2024-03-01T19:09:58.377Z,89.93
2024-03-01T19:12:26.536Z,85.88
2024-03-01T19:14:54.707Z,90.85
2024-03-01T19:17:22.972Z,104.07
2024-03-01T19:19:51.131Z,86.80
2024-03-01T19:22:19.287Z,101.93
2024-03-01T19:24:47.794Z,107.25
2024-03-01T19:27:18.295Z,94.82
2024-03-01T19:29:49.558Z,97.97
2024-03-01T19:32:17.830Z,94.30
2024-03-01T19:34:46.203Z,104.95
2024-03-01T19:37:14.318Z,98.43
2024-03-01T19:39:42.789Z,94.50
2024-03-01T19:42:10.979Z,90.25
2024-03-01T19:44:42.929Z,93.65
2024-03-01T19:47:13.689Z,108.95
2024-03-01T19:49:45.845Z,96.35
2024-03-01T19:52:15.725Z,105.10
2024-03-01T19:54:44.080Z,103.43
2024-03-01T19:57:12.448Z,116.97
2024-03-01T19:59:42.116Z,96.60
2024-03-01T20:02:10.393Z,91.00
2024-03-01T20:04:39.763Z,101.90
2024-03-01T20:07:08.080Z,96.80
2024-03-01T20:09:38.846Z,94.25
2024-03-01T20:12:12.164Z,100.18
2024-03-01T20:14:41.843Z,104.05
2024-03-01T20:17:09.946Z,98.80
2024-03-01T20:19:38.351Z,91.55
2024-03-01T20:22:08.752Z,98.35
2024-03-01T20:24:37.529Z,95.53
2024-03-01T20:27:05.972Z,88.28
2024-03-01T20:29:34.210Z,105.95
2024-03-01T20:32:04.681Z,100.05
2024-03-01T20:34:33.472Z,105.00
2024-03-01T20:37:02.457Z,97.03
2024-03-01T20:39:30.983Z,105.07
2024-03-01T20:42:01.408Z,110.82
2024-03-01T20:44:30.195Z,94.07
2024-03-01T20:46:58.871Z,98.47
2024-03-01T20:49:29.772Z,113.18
2024-03-01T20:52:00.397Z,118.35
2024-03-01T20:54:28.957Z,113.80
2024-03-01T20:56:57.279Z,114.43
2024-03-01T20:59:26.108Z,111.35
2024-03-01T21:01:55.636Z,124.30
2024-03-01T21:04:24.727Z,124.18
2024-03-01T21:06:56.514Z,116.97
2024-03-01T21:09:26.771Z,125.03
2024-03-01T21:11:55.879Z,117.43
2024-03-01T21:14:25.181Z,111.82
2024-03-01T21:16:53.884Z,115.57
2024-03-01T21:19:22.790Z,119.03
2024-03-01T21:24:30.208Z,108.60
2024-03-01T21:27:01.384Z,106.18
2024-03-01T21:29:29.901Z,107.13
2024-03-01T21:31:59.585Z,108.00
2024-03-01T21:34:29.029Z,113.68
2024-03-01T21:36:58.686Z,112.38
2024-03-01T21:39:26.828Z,105.57
2024-03-01T21:41:54.996Z,119.65
2024-03-01T21:44:23.061Z,115.25
2024-03-01T21:46:51.176Z,114.35
2024-03-01T21:49:19.267Z,102.68
2024-03-01T21:51:48.658Z,111.50
2024-03-01T21:54:19.021Z,116.32
2024-03-01T21:56:47.178Z,118.45
2024-03-01T21:59:15.456Z,117.47
2024-03-01T22:01:44.407Z,125.07
2024-03-01T22:04:14.990Z,113.72
2024-03-01T22:06:43.489Z,110.13
2024-03-01T22:09:12.811Z,109.00
2024-03-01T22:11:44.936Z,116.93
2024-03-01T22:14:13.500Z,124.65
2024-03-01T22:16:41.808Z,114.28
2024-03-01T22:19:10.286Z,117.65
2024-03-01T22:21:39.820Z,115.75
2024-03-01T22:24:08.505Z,125.68
2024-03-01T22:26:36.619Z,121.72
2024-03-01T22:29:06.031Z,118.25
2024-03-01T22:31:34.361Z,113.88
2024-03-01T22:34:02.791Z,117.38
2024-03-01T22:36:31.226Z,122.28
2024-03-01T22:38:59.860Z,113.25
2024-03-01T22:41:28.441Z,115.78
2024-03-01T22:43:56.905Z,120.80
2024-03-01T22:46:29.537Z,121.88
2024-03-01T22:49:00.828Z,113.65
2024-03-01T22:51:32.333Z,109.07
2024-03-01T22:54:05.021Z,111.00
2024-03-01T22:56:36.691Z,121.07
2024-03-01T22:59:40.381Z,120.43
2024-03-01T23:02:15.090Z,119.00
2024-03-01T23:04:44.891Z,106.80
2024-03-01T23:07:15.065Z,105.00
2024-03-01T23:09:44.131Z,111.90
2024-03-01T23:12:13.629Z,115.95
2024-03-01T23:14:50.003Z,113.15
2024-03-01T23:17:22.752Z,111.43
2024-03-01T23:19:51.463Z,116.88
2024-03-01T23:22:25.085Z,106.68
2024-03-01T23:24:54.291Z,101.53
2024-03-01T23:27:25.138Z,112.03
2024-03-01T23:29:53.771Z,112.70
2024-03-01T23:32:23.814Z,106.80
2024-03-01T23:35:29.036Z,107.97
2024-03-01T23:37:58.473Z,108.57
2024-03-01T23:40:26.814Z,106.70
2024-03-01T23:42:55.381Z,99.68
2024-03-01T23:45:23.879Z,106.13
2024-03-01T23:47:53.740Z,93.43
2024-03-01T23:50:23.529Z,100.15
2024-03-01T23:52:52.492Z,90.38
2024-03-01T23:55:22.495Z,110.22
2024-03-01T23:57:51.708Z,102.40
